X  Chiuso Dati meteorologici dell'aviazione (METAR)     EDDH Hamburg Helmut Schmidt Airport
Temperatura
18°C Temperatura
17°C Punto di rugiada
94% Umidità



Vento
6 MPH
10 KM/O
3 M/S
5 KTS



240°
OSO
Condizioni attuali

Chiaro Chiaro
Pressione 1013.88 (hPa) - 29.94 (inHg)
Visibilità 6 (miglio) - 9.7 (km)
Aeroporto
Codice-Aeroporto EDDH

Posizione: Hamburg Helmut Schmidt Airport
Distanza: 11 (mi)

Metar:
EDDH 231920Z AUTO 24005KT CAVOK 18/17 Q1014 NOSIG

Ore: 23-07-2024 21:20 CEST